Terminal Aerodrome Forecast
Issued by NWS Wilmington, OH

Current Version | Previous Version | Graphics & Text | Print | Product List | Glossary On
Versions: 1 2 3 4 5 6 7 8 9 10 11 12 13 14 15 16 17 18 19 20
000
FTUS41 KILN 081501 AAA
TAFDAY
TAF AMD
KDAY 081501Z 0815/0912 23010KT P6SM FEW160 FEW250
     FM090000 22007KT P6SM FEW250
     FM091000 19008KT P6SM VCSH SCT040 BKN090=

USA.gov is the U.S. government's official web portal to all federal, state and local government web resources and services.